This is the latest recevied weather packets stored in our database for station/object OH2CHY-10. If no packets are shown the sender has not sent any weather packets the latest 10 day(s).
| Time | Temp. | Humidity | Pressure | Rain* | Wind** | Luminosity | Snow |
|---|---|---|---|---|---|---|---|
| 1777891456 | 12.22° C | 59% | 1003.1 hPa | - | - | - | - |
| 1777890556 | 12.22° C | 58% | 1003.2 hPa | - | - | - | - |
| 1777889656 | 12.22° C | 57% | 1003.4 hPa | - | - | - | - |
| 1777888755 | 12.22° C | 54% | 1003.7 hPa | - | - | - | - |
| 1777887855 | 12.22° C | 52% | 1004 hPa | - | - | - | - |
| 1777886955 | 13.33° C | 47% | 1004 hPa | - | - | - | - |
| 1777886055 | 13.33° C | 46% | 1003.9 hPa | - | - | - | - |
| 1777885155 | 13.89° C | 44% | 1004.1 hPa | - | - | - | - |
| 1777884255 | 13.89° C | 41% | 1004.2 hPa | - | - | - | - |
| 1777883355 | 14.44° C | 38% | 1004.2 hPa | - | - | - | - |
| 1777882455 | 14.44° C | 37% | 1004.3 hPa | - | - | - | - |
| 1777881555 | 15° C | 36% | 1004.2 hPa | - | - | - | - |
| 1777880654 | 15.56° C | 35% | 1004.2 hPa | - | - | - | - |
| 1777879754 | 16.67° C | 34% | 1004.1 hPa | - | - | - | - |
| 1777878854 | 17.22° C | 33% | 1004 hPa | - | - | - | - |
| 1777877954 | 17.22° C | 32% | 1004.1 hPa | - | - | - | - |
| 1777877054 | 17.22° C | 33% | 1004.2 hPa | - | - | - | - |
| 1777876154 | 17.22° C | 33% | 1004.5 hPa | - | - | - | - |
| 1777875254 | 17.22° C | 33% | 1004.6 hPa | - | - | - | - |
| 1777874354 | 15.56° C | 35% | 1004.8 hPa | - | - | - | - |
| 1777873453 | 15° C | 35% | 1005 hPa | - | - | - | - |
| 1777872553 | 13.89° C | 35% | 1005.2 hPa | - | - | - | - |
| 1777871653 | 14.44° C | 33% | 1005.2 hPa | - | - | - | - |
| 1777870753 | 16.11° C | 29% | 1005.3 hPa | - | - | - | - |
| 1777869853 | 20.56° C | 27% | 1005.4 hPa | - | - | - | - |
* Rain since midnight (hover to see other rain measurements)
** Current wind speed in m/s (hover to see current wind gust speed)